Latest Weather Observations for Narrandera Airport

IDN60801

Issued at 1:03 am EST Thursday 7 May 2015 (issued every 30 minutes, with the page automatically refreshed every 10 minutes)

About weather observations | Map of weather stations | Latest weather observations for NSW | Other Formats
Station Details ID: 074148 Name: NARRANDERA AIRPORT AWS Lat: -34.70 Lon: 146.51 Height: 145.0 m
Data from the previous 72 hours. | See also: Recent months for locations in New South Wales
Date/Time
EST
Temp
°C
App
Temp
°C
Dew
Point
Rel
Hum
%
Delta-T
°C
Wind Press
QNH
hPa
Press
MSL
hPa
Rain
since 9 am
mm
Dir
 
Spd
km/h
Gust
km/h
Spd
kts
Gust
kts
07/01:00am 12.1 9.2 4.8 61 3.4 WSW 9 15 5 8 1020.2 1020.2 0.0
07/12:30am 12.0 8.3 4.2 59 3.5 W 13 17 7 9 1020.0 1020.0 0.0
07/12:00am 11.3 8.0 4.5 63 3.1 NW 11 15 6 8 1019.9 1019.9 0.0
 
Date/Time
EST
Temp
°C
App
Temp
°C
Dew
Point
Rel
Hum
%
Delta-T
°C
Wind Press
QNH
hPa
Press
MSL
hPa
Rain
since 9 am
mm
Dir
 
Spd
km/h
Gust
km/h
Spd
kts
Gust
kts
06/11:30pm 11.6 7.9 4.6 62 3.2 NW 13 15 7 8 1019.8 1019.8 0.0
06/11:00pm 11.3 7.6 4.7 64 3.0 NW 13 15 7 8 1020.0 1020.0 0.0
06/10:30pm 10.8 7.1 4.3 64 2.9 NW 13 15 7 8 1020.0 1020.0 0.0
06/10:00pm 11.6 8.6 4.3 61 3.3 NW 9 13 5 7 1019.9 1019.9 0.0
06/09:30pm 11.8 8.1 4.5 61 3.3 NW 13 15 7 8 1019.8 1019.8 0.0
06/09:00pm 12.0 8.3 4.7 61 3.3 NNW 13 15 7 8 1019.6 1019.6 0.0
06/08:30pm 11.4 8.5 4.6 63 3.1 NW 9 11 5 6 1019.6 1019.6 0.0
06/08:00pm 9.7 6.2 3.7 66 2.6 NW 11 11 6 6 1019.3 1019.4 0.0
06/07:30pm 10.3 7.2 3.6 63 2.9 NW 9 11 5 6 1019.3 1019.4 0.0
06/07:00pm 10.5 6.9 3.1 60 3.2 NW 11 15 6 8 1019.1 1019.2 0.0
06/06:30pm 12.5 9.4 3.7 55 4.0 WNW 9 13 5 7 1019.1 1019.2 0.0
06/06:00pm 14.5 10.8 4.5 51 4.7 W 13 17 7 9 1018.9 1019.0 0.0
06/05:30pm 15.1 11.0 4.5 49 5.0 WNW 15 20 8 11 1018.7 1018.7 0.0
06/05:00pm 15.6 10.7 4.3 47 5.3 WNW 19 26 10 14 1018.5 1018.5 0.0
06/04:30pm 15.9 10.5 4.3 46 5.5 W 22 30 12 16 1018.3 1018.3 0.0
06/04:00pm 16.1 11.2 4.2 45 5.6 WNW 19 28 10 15 1018.1 1018.1 0.0
06/03:30pm 16.5 11.6 3.9 43 5.9 WSW 19 26 10 14 1018.0 1018.0 0.0
06/03:00pm 16.5 11.0 3.9 43 5.9 W 22 35 12 19 1017.9 1017.9 0.0
06/02:30pm 16.7 12.1 3.7 42 6.1 W 17 24 9 13 1017.8 1017.8 0.0
06/02:00pm 15.9 10.7 3.4 43 5.8 WSW 20 32 11 17 1017.9 1017.9 0.0
06/01:30pm 16.3 10.7 3.4 42 6.0 W 22 32 12 17 1017.9 1017.9 0.0
06/01:00pm 16.4 10.1 3.5 42 6.0 WNW 26 35 14 19 1018.2 1018.2 0.0
06/12:30pm 15.1 9.9 3.3 45 5.4 WNW 20 32 11 17 1018.5 1018.5 0.0
06/12:00pm 15.3 10.1 3.5 45 5.4 WNW 20 32 11 17 1018.9 1019.0 0.0
06/11:30am 14.9 9.3 3.7 47 5.2 W 22 35 12 19 1019.2 1019.3 0.0
06/11:00am 13.7 8.6 4.0 52 4.4 WSW 20 30 11 16 1019.4 1019.5 0.0
06/10:30am 13.5 8.5 4.6 55 4.1 WSW 20 35 11 19 1019.6 1019.6 0.0
06/10:00am 12.8 7.8 4.5 57 3.8 WSW 20 32 11 17 1019.6 1019.6 0.0
06/09:30am 11.9 7.4 4.2 59 3.5 W 17 24 9 13 1019.2 1019.3 0.0
06/09:00am 11.1 7.0 4.1 62 3.1 W 15 20 8 11 1019.0 1019.1 0.0
06/08:30am 9.2 5.3 3.4 67 2.5 WNW 13 17 7 9 1018.7 1018.7 0.0
06/08:00am 6.7 3.5 2.8 76 1.6 N 9 11 5 6 1018.4 1018.4 0.0
06/07:30am 4.5 2.4 1.5 81 1.2 NW 2 6 1 3 1017.9 1017.9 0.0
06/07:00am 3.7 0.1 0.7 81 1.2 NW 9 11 5 6 1017.4 1017.4 0.0
06/06:30am 4.5 1.0 1.5 81 1.2 WNW 9 11 5 6 1017.1 1017.1 0.0
06/06:00am 4.3 0.4 1.3 81 1.2 NW 11 13 6 7 1016.7 1016.7 0.0
06/05:30am 4.7 2.9 1.4 79 1.3 CALM 0 0 0 0 1016.4 1016.4 0.0
06/05:00am 5.1 1.9 0.9 74 1.6 NW 7 9 4 5 1016.2 1016.2 0.0
06/04:30am 5.5 2.0 1.4 75 1.6 WNW 9 11 5 6 1015.9 1015.9 0.0
06/04:00am 5.0 1.4 0.9 75 1.6 NW 9 11 5 6 1015.7 1015.7 0.0
06/03:30am 5.5 2.0 1.1 73 1.7 NW 9 11 5 6 1015.6 1015.6 0.0
06/03:00am 6.1 2.6 1.1 70 2.0 NNW 9 11 5 6 1015.3 1015.3 0.0
06/02:30am 6.1 4.2 0.4 67 2.2 CALM 0 0 0 0 1015.2 1015.2 0.0
06/02:00am 7.2 5.4 1.1 65 2.5 CALM 0 7 0 4 1015.4 1015.4 0.0
06/01:30am 8.6 5.7 1.5 61 2.9 W 6 9 3 5 1015.3 1015.3 0.0
06/01:00am 10.1 6.7 2.0 57 3.4 W 9 17 5 9 1015.2 1015.2 0.0
06/12:30am 10.9 6.8 2.0 54 3.8 WSW 13 19 7 10 1015.1 1015.1 0.0
06/12:00am 11.5 7.4 2.0 52 4.1 WSW 13 19 7 10 1014.9 1014.9 0.0
 
Date/Time
EST
Temp
°C
App
Temp
°C
Dew
Point
Rel
Hum
%
Delta-T
°C
Wind Press
QNH
hPa
Press
MSL
hPa
Rain
since 9 am
mm
Dir
 
Spd
km/h
Gust
km/h
Spd
kts
Gust
kts
05/11:30pm 11.8 6.9 2.0 51 4.2 W 17 24 9 13 1014.8 1014.8 0.0
05/11:00pm 12.5 7.2 2.1 49 4.5 W 19 26 10 14 1014.6 1014.6 0.0
05/10:30pm 12.7 7.5 2.3 49 4.6 W 19 24 10 13 1014.5 1014.5 0.0
05/10:00pm 11.9 8.2 2.1 51 4.2 W 11 15 6 8 1014.4 1014.4 0.0
05/09:30pm 12.7 8.6 2.3 49 4.6 W 13 19 7 10 1014.2 1014.2 0.0
05/09:00pm 13.0 8.9 2.3 48 4.7 W 13 19 7 10 1013.9 1013.9 0.0
05/08:30pm 13.6 9.1 1.9 45 5.1 WSW 15 24 8 13 1013.4 1013.4 0.0
05/08:00pm 13.8 9.3 2.1 45 5.2 WSW 15 20 8 11 1013.0 1013.0 0.0
05/07:30pm 14.3 9.1 2.5 45 5.3 WSW 19 28 10 15 1012.5 1012.4 0.0
05/07:00pm 15.1 9.1 3.3 45 5.4 W 24 35 13 19 1011.9 1011.9 0.0
05/06:30pm 14.7 10.1 3.8 48 5.0 W 17 24 9 13 1011.3 1011.3 0.0
05/06:00pm 15.3 10.4 4.1 47 5.2 W 19 28 10 15 1010.3 1010.3 0.0
05/05:30pm 15.5 11.1 4.8 49 5.1 W 17 20 9 11 1009.9 1009.9 0.0
05/05:00pm 16.2 10.5 4.9 47 5.4 WSW 24 33 13 18 1009.8 1009.8 0.0
05/04:33pm 18.1 10.1 3.6 38 6.8 W 35 54 19 29 1009.2 1009.2 0.0
05/04:30pm 18.3 10.2 3.4 37 7.0 W 35 48 19 26 1009.0 1009.0 0.0
05/04:00pm 19.1 11.8 2.5 33 7.7 W 30 50 16 27 1008.5 1008.5 0.0
05/03:33pm 19.3 10.9 1.8 31 8.0 W 35 54 19 29 1008.2 1008.2 0.0
05/03:30pm 19.6 10.9 2.0 31 8.1 W 37 50 20 27 1008.1 1008.1 0.0
05/03:06pm 21.0 11.5 1.8 28 8.9 W 41 59 22 32 1007.3 1007.3 0.0
05/03:00pm 21.4 12.3 1.6 27 9.2 W 39 54 21 29 1007.2 1007.2 0.0
05/02:30pm 21.7 12.4 0.8 25 9.6 WNW 39 57 21 31 1006.7 1006.6 0.0
05/02:20pm 21.7 11.0 0.3 24 9.7 WNW 46 65 25 35 1006.7 1006.6 0.0
05/02:12pm 22.0 11.8 -0.1 23 10.0 WNW 43 63 23 34 1006.3 1006.2 0.0
05/02:00pm 22.2 13.3 2.8 28 9.3 WNW 39 59 21 32 1006.3 1006.2 0.0
05/01:58pm 22.0 13.0 2.7 28 9.2 WNW 39 59 21 32 1006.2 1006.1 0.0
05/01:56pm 22.0 13.0 2.7 28 9.2 WNW 39 54 21 29 1006.2 1006.1 0.0
05/01:49pm 22.6 12.6 2.1 26 9.7 WNW 44 63 24 34 1006.1 1006.0 0.0
05/01:30pm 22.3 12.4 2.9 28 9.3 WNW 44 59 24 32 1006.1 1006.0 0.0
05/01:11pm 21.8 13.2 4.4 32 8.6 WNW 39 57 21 31 1006.0 1005.9 0.0
05/01:00pm 21.4 13.7 5.3 35 8.1 WNW 35 52 19 28 1006.2 1006.1 0.0
05/12:33pm 21.1 13.3 5.1 35 7.9 WNW 35 54 19 29 1006.5 1006.4 0.0
05/12:30pm 20.9 12.3 4.9 35 7.9 WNW 39 54 21 29 1006.5 1006.4 0.0
05/12:24pm 21.0 13.1 4.6 34 8.0 WNW 35 54 19 29 1006.5 1006.4 0.0
05/12:00pm 21.6 13.6 5.5 35 8.1 WNW 37 52 20 28 1006.6 1006.5 0.0
05/11:30am 21.8 14.6 6.1 36 8.0 WNW 33 44 18 24 1006.9 1006.8 0.0
05/11:00am 21.2 15.2 5.5 36 7.9 WNW 26 39 14 21 1007.2 1007.2 0.0
05/10:30am 20.7 12.9 5.1 36 7.7 NW 35 48 19 26 1007.4 1007.4 0.0
05/10:00am 20.1 12.2 4.6 36 7.6 NW 35 56 19 30 1007.2 1007.2 0.0
05/09:59am 20.0 12.1 4.5 36 7.5 NW 35 56 19 30 1007.1 1007.0 0.0
05/09:30am 18.3 12.6 4.8 41 6.5 NNW 24 30 13 16 1007.2 1007.2 0.0
05/09:00am 17.3 12.0 4.9 44 6.0 NNW 22 32 12 17 1007.5 1007.5 0.0
05/08:30am 17.2 11.3 3.8 41 6.3 NNW 24 32 13 17 1007.3 1007.3 0.0
05/08:00am 16.4 11.2 3.5 42 6.0 N 20 30 11 16 1007.0 1006.9 0.0
05/07:30am 16.3 11.3 3.4 42 6.0 N 19 26 10 14 1007.2 1007.2 0.0
05/07:00am 15.9 10.6 3.0 42 5.9 N 20 28 11 15 1007.4 1007.4 0.0
05/06:30am 15.1 9.5 3.3 45 5.4 N 22 26 12 14 1007.4 1007.4 0.0
05/06:00am 14.5 9.8 3.0 46 5.2 N 17 20 9 11 1007.7 1007.7 0.0
05/05:30am 13.9 9.9 3.1 48 4.9 N 13 15 7 8 1008.1 1008.1 0.0
05/05:00am 13.0 9.0 2.8 50 4.5 NE 13 19 7 10 1008.0 1008.0 0.0
05/04:30am 12.8 8.1 2.9 51 4.4 NNE 17 22 9 12 1008.2 1008.2 0.0
05/04:00am 13.0 10.1 2.8 50 4.5 NE 7 11 4 6 1008.6 1008.6 0.0
05/03:30am 13.4 9.9 3.5 51 4.5 NE 11 15 6 8 1009.0 1009.0 0.0
05/03:00am 9.5 6.6 4.7 72 2.2 NE 9 11 5 6 1009.7 1009.7 0.0
05/02:30am 9.0 7.8 4.4 73 2.0 CALM 0 0 0 0 1010.1 1010.1 0.0
05/02:00am 9.6 8.2 3.8 67 2.6 CALM 0 0 0 0 1010.7 1010.7 0.0
05/01:30am 9.6 8.3 4.2 69 2.4 CALM 0 0 0 0 1011.0 1011.0 0.0
05/01:00am 10.7 8.3 4.4 65 2.8 NE 6 7 3 4 1011.0 1011.0 0.0
05/12:30am 9.4 8.1 4.2 70 2.3 CALM 0 6 0 3 1010.8 1010.8 0.0
05/12:00am 9.3 6.2 3.7 68 2.5 ESE 9 11 5 6 1011.4 1011.4 0.0
 
Date/Time
EST
Temp
°C
App
Temp
°C
Dew
Point
Rel
Hum
%
Delta-T
°C
Wind Press
QNH
hPa
Press
MSL
hPa
Rain
since 9 am
mm
Dir
 
Spd
km/h
Gust
km/h
Spd
kts
Gust
kts
04/11:30pm 9.9 8.3 4.5 69 2.4 ESE 2 7 1 4 1011.9 1011.9 0.0
04/11:00pm 9.7 6.8 4.5 70 2.3 ESE 9 9 5 5 1011.9 1011.9 0.0
04/10:30pm 9.4 7.5 5.0 74 2.0 SE 4 9 2 5 1012.2 1012.2 0.0
04/10:00pm 9.8 8.8 5.6 75 1.9 CALM 0 0 0 0 1012.6 1012.5 0.0
04/09:30pm 9.1 7.9 4.7 74 2.0 CALM 0 0 0 0 1012.8 1012.7 0.0
04/09:00pm 9.6 8.4 4.8 72 2.2 CALM 0 0 0 0 1013.2 1013.2 0.0
04/08:30pm 10.8 9.8 5.8 71 2.3 CALM 0 0 0 0 1013.2 1013.2 0.0
04/08:00pm 11.1 10.2 6.0 71 2.4 CALM 0 0 0 0 1013.0 1013.0 0.0
04/07:30pm 11.3 10.3 5.8 69 2.6 CALM 0 0 0 0 1013.3 1013.3 0.0
04/07:00pm 12.4 11.5 6.2 66 3.0 CALM 0 0 0 0 1013.2 1013.2 0.0
04/06:30pm 13.6 12.8 6.5 62 3.4 CALM 0 0 0 0 1013.2 1013.2 0.0
04/06:00pm 15.5 14.8 6.8 56 4.3 CALM 0 0 0 0 1013.1 1013.1 0.0
04/05:30pm 18.3 16.6 5.8 44 6.2 W 4 7 2 4 1013.2 1013.2 0.0
04/05:00pm 21.0 18.5 5.0 35 7.9 WNW 7 9 4 5 1013.2 1013.2 0.0
04/04:30pm 22.1 19.1 4.2 31 8.8 NNW 9 13 5 7 1013.1 1013.1 0.0
04/04:00pm 22.2 19.9 4.7 32 8.7 SSW 6 9 3 5 1013.3 1013.3 0.0
04/03:30pm 21.9 19.6 4.9 33 8.4 S 6 9 3 5 1013.4 1013.4 0.0
04/03:00pm 22.5 20.1 5.4 33 8.6 WSW 7 13 4 7 1013.6 1013.6 0.0
04/02:30pm 21.8 19.4 5.3 34 8.3 S 7 11 4 6 1013.9 1013.9 0.0
04/02:00pm 21.8 19.4 4.4 32 8.6 WSW 6 13 3 7 1014.2 1014.2 0.0
04/01:30pm 21.9 18.7 5.3 34 8.3 W 11 19 6 10 1014.4 1014.4 0.0
04/01:00pm 21.5 19.2 5.8 36 7.9 WSW 7 11 4 6 1014.9 1014.9 0.0
04/12:30pm 21.5 19.9 6.2 37 7.8 W 4 13 2 7 1015.5 1015.5 0.0
04/12:00pm 20.7 18.5 6.3 39 7.3 N 7 13 4 7 1016.2 1016.2 0.0
04/11:30am 20.2 18.6 6.5 41 6.9 NW 4 11 2 6 1016.5 1016.5 0.0
04/11:00am 19.7 18.0 7.4 45 6.3 WNW 6 11 3 6 1016.8 1016.8 0.0
04/10:30am 19.1 18.6 7.8 48 5.8 CALM 0 7 0 4 1017.0 1017.0 0.0
04/10:00am 17.4 16.2 8.0 54 4.8 NW 4 9 2 5 1017.2 1017.2 0.0
04/09:30am 15.6 14.7 7.6 59 4.0 NNW 2 7 1 4 1017.3 1017.3 0.0
04/09:00am 13.2 11.7 7.0 66 3.0 NW 4 9 2 5 1017.4 1017.4 0.0
04/08:30am 10.8 10.0 6.6 75 2.0 CALM 0 0 0 0 1017.3 1017.3 0.0
04/08:00am 8.1 7.2 6.1 87 0.9 CALM 0 0 0 0 1017.2 1017.2 0.0
04/07:30am 5.6 4.4 4.6 93 0.4 CALM 0 0 0 0 1017.2 1017.2 0.0
04/07:00am 4.3 2.8 3.0 91 0.5 CALM 0 0 0 0 1016.9 1016.9 0.0
04/06:30am 4.5 3.0 2.8 89 0.7 CALM 0 0 0 0 1017.0 1017.0 0.0
04/06:00am 4.8 3.3 3.0 88 0.7 CALM 0 0 0 0 1016.8 1016.8 0.0
04/05:30am 5.0 3.5 3.2 88 0.7 CALM 0 0 0 0 1016.8 1016.8 0.0
04/05:00am 5.4 4.0 3.6 88 0.8 CALM 0 0 0 0 1016.8 1016.8 0.0
04/04:30am 5.6 4.2 3.8 88 0.8 CALM 0 0 0 0 1016.7 1016.7 0.0
04/04:00am 5.3 3.9 3.5 88 0.8 CALM 0 0 0 0 1016.5 1016.5 0.0
04/03:30am 5.8 4.4 3.6 86 0.9 CALM 0 0 0 0 1016.7 1016.7 0.0
04/03:00am 5.8 4.4 3.6 86 0.9 CALM 0 0 0 0 1016.8 1016.8 0.0
04/02:30am 6.0 4.6 3.5 84 1.1 CALM 0 0 0 0 1017.0 1017.0 0.0
04/02:00am 6.7 5.5 4.4 85 1.0 CALM 0 0 0 0 1017.1 1017.1 0.0
04/01:30am 6.6 5.3 4.3 85 1.0 CALM 0 0 0 0 1017.3 1017.3 0.0

Other Formats:

Comma delimited format used in spreadsheet applications
http://www.bom.gov.au/fwo/IDN60801/IDN60801.95706.axf

JavaScript Object Notation format (JSON) in row-major order
http://www.bom.gov.au/fwo/IDN60801/IDN60801.95706.json